Time;durP1;ratioP1;P1;durP2;ratioP2;P2;SDS_P1;SDS_P2;PMS_P1;PMS_P2;Temp;Humidity;BMP_temperature;BMP_pressure;BME280_temperature;BME280_humidity;BME280_pressure;Samples;Min_cycle;Max_cycle;Signal;HPM_P1;HPM_P2
2023/03/27 00:00:31;;;;;;;10.43;2.28;;;3.80;99.90;;;;;;5047608;28;20432;-71
2023/03/27 00:02:57;;;;;;;8.40;2.08;;;3.70;99.90;;;;;;5067429;28;20041;-71
2023/03/27 00:05:23;;;;;;;7.50;1.80;;;3.70;99.90;;;;;;5065248;28;20432;-71
2023/03/27 00:07:54;;;;;;;11.32;2.00;;;3.70;99.90;;;;;;5065514;28;20119;-71
2023/03/27 00:10:22;;;;;;;12.73;2.30;;;3.70;99.90;;;;;;5061437;28;20049;-71
2023/03/27 00:12:48;;;;;;;11.35;2.47;;;3.70;99.90;;;;;;5047452;28;20040;-71
2023/03/27 00:15:16;;;;;;;10.27;2.10;;;3.70;99.90;;;;;;5068673;28;20041;-71
2023/03/27 00:17:50;;;;;;;11.20;2.47;;;3.60;99.90;;;;;;5070622;28;20183;-71
2023/03/27 00:20:21;;;;;;;12.63;2.25;;;3.60;99.90;;;;;;5063749;28;20044;-71
2023/03/27 00:22:48;;;;;;;12.00;2.33;;;3.50;99.90;;;;;;5041412;28;20037;-71
2023/03/27 00:25:15;;;;;;;;;;;3.60;99.90;;;;;;5040615;28;20037;-71
2023/03/27 00:27:42;;;;;;;7.57;1.95;;;3.50;99.90;;;;;;5060056;28;20414;-71
2023/03/27 00:30:09;;;;;;;16.98;2.75;;;3.50;99.90;;;;;;5065526;28;20098;-71
2023/03/27 00:32:35;;;;;;;9.75;2.55;;;3.40;99.90;;;;;;5061429;28;20142;-71
2023/03/27 00:35:04;;;;;;;8.93;2.15;;;3.40;99.90;;;;;;5067772;28;20033;-71
2023/03/27 00:37:30;;;;;;;9.70;1.65;;;3.40;99.90;;;;;;5057148;28;20044;-71
2023/03/27 00:39:55;;;;;;;11.30;2.55;;;3.40;99.90;;;;;;5068270;28;20048;-71
2023/03/27 00:42:22;;;;;;;13.00;2.45;;;3.40;99.90;;;;;;5059735;28;20048;-72
2023/03/27 00:44:52;;;;;;;9.13;2.40;;;3.40;99.90;;;;;;5048361;28;20044;-71
2023/03/27 00:47:30;;;;;;;8.00;1.90;;;3.40;99.90;;;;;;5046829;28;20051;-71
2023/03/27 00:49:57;;;;;;;9.32;1.83;;;3.40;99.90;;;;;;5057042;28;20120;-71
2023/03/27 00:52:28;;;;;;;10.70;1.90;;;3.30;99.90;;;;;;5051990;28;20052;-71
2023/03/27 00:54:55;;;;;;;8.88;2.17;;;3.30;99.90;;;;;;5042326;28;20530;-71
2023/03/27 00:57:24;;;;;;;11.35;2.17;;;3.30;99.90;;;;;;5063340;28;20500;-71
2023/03/27 00:59:52;;;;;;;12.68;2.35;;;3.30;99.90;;;;;;5063016;28;20053;-71
2023/03/27 01:02:18;;;;;;;18.30;2.22;;;3.20;99.90;;;;;;5048214;28;20384;-71
2023/03/27 01:04:45;;;;;;;11.80;1.93;;;3.20;99.90;;;;;;5064411;28;20474;-72
2023/03/27 01:07:13;;;;;;;15.13;2.45;;;3.20;99.90;;;;;;5060421;28;20041;-71
2023/03/27 01:09:38;;;;;;;;;;;3.20;99.90;;;;;;5062968;28;20454;-71
2023/03/27 01:12:10;;;;;;;8.85;1.73;;;3.20;99.90;;;;;;5066125;28;20019;-71
2023/03/27 01:15:05;;;;;;;8.77;1.77;;;3.10;99.90;;;;;;5064189;28;20051;-71
2023/03/27 01:17:50;;;;;;;12.20;2.13;;;3.10;99.90;;;;;;5060778;28;20052;-71
2023/03/27 01:20:33;;;;;;;11.02;1.88;;;3.10;99.90;;;;;;5062461;28;20123;-71
2023/03/27 01:23:44;;;;;;;8.02;1.88;;;3.10;99.90;;;;;;5065089;28;20531;-71
2023/03/27 01:26:31;;;;;;;13.48;1.98;;;3.10;99.90;;;;;;5036836;28;20080;-70
2023/03/27 01:29:09;;;;;;;12.18;2.03;;;3.10;99.90;;;;;;5050619;28;20369;-71
2023/03/27 01:31:44;;;;;;;10.43;1.65;;;3.10;99.90;;;;;;5068249;28;20045;-71
2023/03/27 01:34:37;;;;;;;9.38;1.90;;;3.10;99.90;;;;;;5058687;28;20037;-71
2023/03/27 01:37:14;;;;;;;8.75;2.10;;;3.10;99.90;;;;;;5031669;28;20521;-71
2023/03/27 01:39:40;;;;;;;;;;;3.10;99.90;;;;;;5067782;28;20063;-71
2023/03/27 01:42:14;;;;;;;11.23;1.73;;;3.10;99.90;;;;;;5051453;28;19928;-71
2023/03/27 01:44:49;;;;;;;9.27;1.83;;;3.10;99.90;;;;;;5053141;28;20395;-71
2023/03/27 01:47:35;;;;;;;5.88;1.48;;;3.10;99.90;;;;;;5069044;28;20040;-71
2023/03/27 01:50:22;;;;;;;9.82;2.05;;;3.10;99.90;;;;;;5048072;28;20098;-70
2023/03/27 01:53:00;;;;;;;;;;;3.10;99.90;;;;;;5054085;28;20049;-71
2023/03/27 01:55:30;;;;;;;11.20;1.80;;;3.10;99.90;;;;;;5059152;28;20011;-71
2023/03/27 01:58:08;;;;;;;12.98;1.77;;;3.00;99.90;;;;;;5046201;28;20041;-71
2023/03/27 02:00:37;;;;;;;9.23;2.05;;;3.10;99.90;;;;;;5067355;28;20139;-71
2023/03/27 02:03:34;;;;;;;9.10;1.92;;;3.00;99.90;;;;;;5052104;28;20060;-71
2023/03/27 02:06:27;;;;;;;7.40;1.70;;;3.00;99.90;;;;;;5009352;28;20074;-70
2023/03/27 02:08:55;;;;;;;8.77;1.90;;;3.00;99.90;;;;;;5062932;28;20052;-71
2023/03/27 02:11:23;;;;;;;8.63;1.90;;;2.90;99.90;;;;;;5042731;28;20032;-71
2023/03/27 02:13:54;;;;;;;6.20;1.52;;;2.90;99.90;;;;;;5050724;28;20045;-71
2023/03/27 02:16:27;;;;;;;9.48;1.85;;;2.90;99.90;;;;;;5066747;28;20045;-71
2023/03/27 02:19:01;;;;;;;11.15;1.95;;;2.90;99.90;;;;;;5039502;28;20048;-71
2023/03/27 02:21:30;;;;;;;8.82;2.08;;;2.90;99.90;;;;;;5072605;28;20384;-71
2023/03/27 02:23:56;;;;;;;6.88;1.60;;;2.90;99.90;;;;;;5070897;28;20044;-70
2023/03/27 02:26:22;;;;;;;11.23;2.05;;;2.90;99.90;;;;;;5051089;28;20098;-71
2023/03/27 02:29:16;;;;;;;8.45;1.77;;;2.90;99.90;;;;;;5040958;28;20060;-71
2023/03/27 02:32:00;;;;;;;8.55;1.88;;;2.90;99.90;;;;;;5050947;28;20111;-71
2023/03/27 02:34:49;;;;;;;8.63;1.80;;;2.90;99.90;;;;;;5062873;28;20547;-70
2023/03/27 02:37:31;;;;;;;9.27;2.13;;;2.80;99.90;;;;;;5069664;28;20139;-71
2023/03/27 02:40:09;;;;;;;9.05;1.60;;;2.90;99.90;;;;;;5063999;28;20043;-71
2023/03/27 02:42:56;;;;;;;10.70;1.92;;;2.80;99.90;;;;;;5046920;28;20051;-71
2023/03/27 02:45:40;;;;;;;12.32;2.45;;;2.80;99.90;;;;;;5067121;28;20522;-71
2023/03/27 02:48:16;;;;;;;9.52;2.13;;;2.80;99.90;;;;;;5070895;28;20117;-71
2023/03/27 02:51:15;;;;;;;6.50;1.42;;;2.80;99.90;;;;;;5067846;28;20270;-71
2023/03/27 02:53:56;;;;;;;5.97;1.70;;;2.80;99.90;;;;;;5058324;28;20159;-71
2023/03/27 02:56:25;;;;;;;10.43;2.03;;;2.80;99.90;;;;;;5058119;28;20102;-71
2023/03/27 02:58:58;;;;;;;10.32;2.40;;;2.80;99.90;;;;;;5046351;28;20045;-71
2023/03/27 03:01:30;;;;;;;8.57;1.98;;;2.80;99.90;;;;;;5060576;28;20060;-70
2023/03/27 03:04:17;;;;;;;9.25;1.83;;;2.70;99.90;;;;;;5049474;28;20044;-70
2023/03/27 03:06:43;;;;;;;8.70;1.60;;;2.70;99.90;;;;;;5068090;28;20056;-71
2023/03/27 03:09:09;;;;;;;9.82;2.10;;;2.70;99.90;;;;;;5066413;28;20344;-70
2023/03/27 03:11:47;;;;;;;19.73;2.33;;;2.60;99.90;;;;;;5065414;28;20098;-70
2023/03/27 03:14:13;;;;;;;9.48;2.08;;;2.70;99.90;;;;;;5062502;28;20048;-70
2023/03/27 03:16:39;;;;;;;10.75;2.08;;;2.70;99.90;;;;;;5039780;28;20044;-71
2023/03/27 03:19:04;;;;;;;10.57;1.98;;;2.60;99.90;;;;;;5043220;28;20036;-71
2023/03/27 03:21:30;;;;;;;8.55;1.75;;;2.70;99.90;;;;;;5066688;28;20560;-71
2023/03/27 03:23:56;;;;;;;7.38;1.60;;;2.70;99.90;;;;;;5047147;28;20124;-70
2023/03/27 03:26:22;;;;;;;7.35;1.80;;;2.70;99.90;;;;;;5050099;28;20053;-71
2023/03/27 03:28:48;;;;;;;7.78;2.10;;;2.70;99.90;;;;;;5045609;28;20439;-70
2023/03/27 03:31:14;;;;;;;7.28;1.50;;;2.70;99.90;;;;;;5061450;28;20080;-71
2023/03/27 03:33:39;;;;;;;10.35;2.03;;;2.60;99.90;;;;;;5063594;28;20044;-70
2023/03/27 03:36:08;;;;;;;11.02;2.13;;;2.60;99.90;;;;;;5064111;28;20151;-71
2023/03/27 03:38:34;;;;;;;7.15;1.98;;;2.60;99.90;;;;;;5049091;28;20123;-71
2023/03/27 03:41:00;;;;;;;7.00;1.58;;;2.60;99.90;;;;;;5048752;28;20127;-71
2023/03/27 03:43:28;;;;;;;6.25;1.98;;;2.60;99.90;;;;;;5067165;28;20475;-71
2023/03/27 03:45:54;;;;;;;12.38;2.28;;;2.60;99.90;;;;;;5059800;28;20036;-71
2023/03/27 03:48:21;;;;;;;11.93;1.90;;;2.70;99.90;;;;;;5063783;28;20045;-71
2023/03/27 03:50:48;;;;;;;6.60;1.60;;;2.60;99.90;;;;;;5059851;28;20511;-71
2023/03/27 03:53:16;;;;;;;6.20;1.60;;;2.60;99.90;;;;;;5053480;28;20474;-71
2023/03/27 03:55:42;;;;;;;;;;;2.70;99.90;;;;;;5065265;28;20043;-71
2023/03/27 03:58:08;;;;;;;9.23;1.50;;;2.70;99.90;;;;;;5042515;28;20333;-71
2023/03/27 04:00:37;;;;;;;10.65;1.80;;;2.60;99.90;;;;;;5051883;28;20258;-70
2023/03/27 04:03:04;;;;;;;9.38;1.85;;;2.60;99.90;;;;;;5061108;28;20056;-71
2023/03/27 04:05:30;;;;;;;;;;;2.60;99.90;;;;;;5065740;28;20047;-70
2023/03/27 04:07:58;;;;;;;10.82;1.77;;;2.60;99.90;;;;;;5058131;28;19927;-71
2023/03/27 04:10:24;;;;;;;8.80;1.77;;;2.60;99.90;;;;;;5061205;28;20116;-71
2023/03/27 04:12:51;;;;;;;10.97;2.27;;;2.60;99.90;;;;;;5068223;28;20047;-71
2023/03/27 04:15:17;;;;;;;8.10;1.70;;;2.60;99.90;;;;;;5066848;28;20545;-70
2023/03/27 04:17:43;;;;;;;8.77;1.60;;;2.60;99.90;;;;;;5069509;28;20046;-70
2023/03/27 04:20:11;;;;;;;6.47;2.08;;;2.60;99.90;;;;;;5062453;28;20048;-70
2023/03/27 04:22:37;;;;;;;8.02;1.80;;;2.50;99.90;;;;;;5056229;28;20085;-70
2023/03/27 04:25:07;;;;;;;13.93;2.28;;;2.50;99.90;;;;;;5053610;28;20045;-71
2023/03/27 04:27:34;;;;;;;8.98;1.88;;;2.50;99.90;;;;;;5051375;28;20056;-71
2023/03/27 04:30:01;;;;;;;6.13;1.52;;;2.40;99.90;;;;;;5046982;28;20045;-71
2023/03/27 04:32:27;;;;;;;9.60;1.70;;;2.40;99.90;;;;;;5041539;28;20040;-70
2023/03/27 04:34:55;;;;;;;7.80;1.85;;;2.40;99.90;;;;;;5065835;28;20076;-71
2023/03/27 04:37:22;;;;;;;6.38;1.83;;;2.40;99.90;;;;;;5059649;28;20090;-71
2023/03/27 04:39:47;;;;;;;8.57;1.70;;;2.40;99.90;;;;;;5059745;28;20138;-71
2023/03/27 04:42:14;;;;;;;9.63;2.00;;;2.40;99.90;;;;;;5058980;28;20439;-71
2023/03/27 04:44:40;;;;;;;10.27;1.58;;;2.40;99.90;;;;;;5063099;28;20512;-70
2023/03/27 04:47:07;;;;;;;8.98;1.92;;;2.40;99.90;;;;;;5044574;28;20094;-70
2023/03/27 04:49:45;;;;;;;6.05;1.50;;;2.40;99.90;;;;;;5062660;28;20055;-70
2023/03/27 04:52:13;;;;;;;11.10;1.77;;;2.30;99.90;;;;;;5068299;28;20447;-71
2023/03/27 04:54:39;;;;;;;;;;;2.30;99.90;;;;;;5056337;28;20067;-70
2023/03/27 04:57:06;;;;;;;9.63;2.13;;;2.30;99.90;;;;;;5065352;28;20011;-71
2023/03/27 04:59:32;;;;;;;8.43;1.70;;;2.30;99.90;;;;;;5041271;28;20049;-70
2023/03/27 05:02:00;;;;;;;7.53;1.52;;;2.30;99.90;;;;;;5044629;28;20401;-71
2023/03/27 05:04:27;;;;;;;8.48;1.75;;;2.30;99.90;;;;;;5041806;28;20052;-71
2023/03/27 05:06:57;;;;;;;11.02;1.90;;;2.30;99.90;;;;;;5036175;28;20084;-71
2023/03/27 05:09:25;;;;;;;5.28;1.60;;;2.30;99.90;;;;;;5041052;28;20033;-71
2023/03/27 05:11:51;;;;;;;10.27;1.90;;;2.30;99.90;;;;;;5037766;28;20499;-70
2023/03/27 05:14:22;;;;;;;9.15;2.13;;;2.30;99.90;;;;;;5040217;28;20033;-70
2023/03/27 05:16:51;;;;;;;7.90;1.65;;;2.30;99.90;;;;;;5043094;28;20446;-71
2023/03/27 05:19:20;;;;;;;12.77;1.80;;;2.30;99.90;;;;;;5039493;28;20116;-70
2023/03/27 05:21:46;;;;;;;11.20;1.70;;;2.40;99.90;;;;;;5040875;28;20079;-71
2023/03/27 05:24:14;;;;;;;7.45;1.48;;;2.40;99.90;;;;;;5038600;28;20473;-70
2023/03/27 05:26:40;;;;;;;9.48;1.88;;;2.40;99.90;;;;;;5062277;28;20545;-70
2023/03/27 05:29:07;;;;;;;9.40;2.05;;;2.40;99.90;;;;;;5049521;28;20048;-70
2023/03/27 05:31:34;;;;;;;8.55;1.92;;;2.40;99.90;;;;;;5039809;28;20488;-70
2023/03/27 05:33:59;;;;;;;6.85;2.40;;;2.40;99.90;;;;;;5033705;28;20140;-70
2023/03/27 05:36:27;;;;;;;12.70;1.95;;;2.40;99.90;;;;;;5037664;28;20511;-71
2023/03/27 05:38:53;;;;;;;9.32;2.13;;;2.50;99.90;;;;;;5041390;28;20053;-72
2023/03/27 05:41:19;;;;;;;7.60;1.60;;;2.40;99.90;;;;;;5045161;28;20120;-70
2023/03/27 05:43:45;;;;;;;6.35;1.55;;;2.40;99.90;;;;;;5035450;28;20048;-70
2023/03/27 05:46:12;;;;;;;7.20;1.80;;;2.40;99.90;;;;;;5045402;28;20045;-70
2023/03/27 05:48:38;;;;;;;12.50;1.80;;;2.40;99.90;;;;;;5020077;28;20038;-70
2023/03/27 05:51:08;;;;;;;8.77;1.60;;;2.40;99.90;;;;;;5039960;28;20041;-70
2023/03/27 05:53:35;;;;;;;9.65;1.77;;;2.50;99.90;;;;;;5044365;28;20052;-70
2023/03/27 05:56:01;;;;;;;11.30;2.33;;;2.50;99.90;;;;;;5047915;28;20060;-69
2023/03/27 05:58:27;;;;;;;9.25;1.88;;;2.50;99.90;;;;;;5044849;28;20041;-73
2023/03/27 06:00:53;;;;;;;9.77;2.00;;;2.50;99.90;;;;;;5059542;28;20437;-70
2023/03/27 06:03:19;;;;;;;8.63;2.00;;;2.50;99.90;;;;;;5067510;28;20052;-70
2023/03/27 06:05:45;;;;;;;10.15;2.05;;;2.50;99.90;;;;;;5057491;28;20036;-70
2023/03/27 06:08:11;;;;;;;10.60;2.40;;;2.50;99.90;;;;;;5063856;28;20048;-70
2023/03/27 06:10:39;;;;;;;9.95;1.83;;;2.50;99.90;;;;;;5068131;28;20040;-70
2023/03/27 06:13:08;;;;;;;8.70;2.03;;;2.50;99.90;;;;;;5061852;28;20586;-70
2023/03/27 06:15:36;;;;;;;10.73;2.20;;;2.50;99.90;;;;;;5058197;28;20037;-70
2023/03/27 06:18:02;;;;;;;6.55;1.90;;;2.50;99.90;;;;;;5065864;28;20124;-70
2023/03/27 06:20:28;;;;;;;9.68;1.63;;;2.50;99.90;;;;;;5047531;28;20041;-70
2023/03/27 06:22:58;;;;;;;9.75;2.15;;;2.60;99.90;;;;;;5041125;28;20044;-70
2023/03/27 06:25:25;;;;;;;8.32;1.90;;;2.60;99.90;;;;;;5069435;28;20492;-70
2023/03/27 06:27:52;;;;;;;8.48;2.13;;;2.70;99.90;;;;;;5064470;28;20068;-70
2023/03/27 06:30:20;;;;;;;8.90;2.10;;;2.70;99.90;;;;;;5063787;28;20036;-70
2023/03/27 06:32:49;;;;;;;11.48;2.00;;;2.70;99.90;;;;;;5063010;28;20503;-70
2023/03/27 06:35:17;;;;;;;10.38;2.05;;;2.80;99.90;;;;;;5070091;28;20072;-70
2023/03/27 06:37:45;;;;;;;;;;;2.90;99.90;;;;;;5074524;28;20071;-70
2023/03/27 06:40:23;;;;;;;7.18;2.00;;;2.90;99.90;;;;;;5069187;28;19920;-72
2023/03/27 06:42:53;;;;;;;11.38;2.20;;;2.90;99.90;;;;;;5070084;28;20044;-72
2023/03/27 06:45:21;;;;;;;8.27;2.00;;;3.00;99.90;;;;;;5055168;28;20037;-74
2023/03/27 06:47:51;;;;;;;8.30;1.80;;;3.00;99.90;;;;;;5061410;28;20044;-73
2023/03/27 06:50:18;;;;;;;10.48;2.42;;;3.10;99.90;;;;;;5064539;28;20125;-70
2023/03/27 06:52:44;;;;;;;6.65;1.88;;;3.10;99.90;;;;;;5063207;28;20067;-70
2023/03/27 06:55:10;;;;;;;6.13;2.03;;;3.20;99.90;;;;;;5068416;28;20036;-70
2023/03/27 06:57:45;;;;;;;7.05;1.88;;;3.20;99.90;;;;;;5069475;28;20055;-70
2023/03/27 07:00:11;;;;;;;7.60;2.05;;;3.30;99.90;;;;;;5047779;28;20122;-70
2023/03/27 07:02:38;;;;;;;10.02;1.63;;;3.30;99.90;;;;;;5070899;28;20056;-70
2023/03/27 07:05:06;;;;;;;7.88;1.35;;;3.40;99.90;;;;;;5060773;28;20045;-70
2023/03/27 07:07:31;;;;;;;6.07;1.35;;;3.50;99.90;;;;;;5062751;28;20045;-70
2023/03/27 07:09:57;;;;;;;4.25;1.00;;;3.60;99.90;;;;;;5062191;28;20130;-70
2023/03/27 07:12:24;;;;;;;7.63;1.30;;;3.60;99.90;;;;;;5047276;28;20036;-70
2023/03/27 07:14:50;;;;;;;6.18;1.40;;;3.70;99.90;;;;;;5059377;28;20196;-70
2023/03/27 07:17:16;;;;;;;4.50;1.00;;;3.70;99.90;;;;;;5066086;28;20041;-72
2023/03/27 07:19:42;;;;;;;4.88;1.00;;;3.80;99.90;;;;;;5066535;28;20522;-70
2023/03/27 07:22:07;;;;;;;8.32;1.17;;;3.90;99.90;;;;;;5053670;28;20052;-72
2023/03/27 07:24:33;;;;;;;6.50;1.15;;;4.00;99.90;;;;;;5062617;28;20051;-69
2023/03/27 07:26:59;;;;;;;5.68;0.93;;;4.00;99.90;;;;;;5056875;28;20041;-69
2023/03/27 07:29:25;;;;;;;3.97;0.88;;;4.10;99.90;;;;;;5068071;28;20116;-68
2023/03/27 07:31:51;;;;;;;8.88;1.00;;;4.20;99.90;;;;;;5060099;28;20044;-68
2023/03/27 07:34:16;;;;;;;6.45;1.30;;;4.20;99.90;;;;;;5042524;28;20098;-68
2023/03/27 07:36:43;;;;;;;5.85;1.55;;;4.40;99.90;;;;;;5063795;28;20063;-70
2023/03/27 07:39:11;;;;;;;7.70;1.10;;;4.40;99.90;;;;;;5070051;28;20542;-70
2023/03/27 07:41:37;;;;;;;7.82;1.20;;;4.40;99.90;;;;;;5046002;28;20057;-71
2023/03/27 07:44:03;;;;;;;5.43;1.00;;;4.40;99.90;;;;;;5068445;28;20036;-70
2023/03/27 07:46:29;;;;;;;5.90;1.20;;;4.40;99.90;;;;;;5059364;28;20042;-69
2023/03/27 07:48:55;;;;;;;4.55;1.05;;;4.50;99.90;;;;;;5049466;28;20041;-70
2023/03/27 07:51:22;;;;;;;7.38;1.20;;;4.50;99.90;;;;;;5043764;28;20037;-71
2023/03/27 07:53:52;;;;;;;7.90;1.33;;;4.50;99.90;;;;;;5065316;28;20071;-70
2023/03/27 07:56:25;;;;;;;5.07;1.00;;;4.60;99.90;;;;;;5071834;28;20045;-69
2023/03/27 07:58:52;;;;;;;6.30;1.40;;;4.60;99.90;;;;;;5066121;28;20056;-69
2023/03/27 08:01:17;;;;;;;4.70;1.07;;;4.60;99.90;;;;;;5038438;28;20040;-68
2023/03/27 08:03:43;;;;;;;5.30;1.10;;;4.70;99.90;;;;;;5051684;28;20180;-71
2023/03/27 08:06:09;;;;;;;8.45;1.15;;;4.70;99.90;;;;;;5041976;28;20378;-68
2023/03/27 08:08:35;;;;;;;8.23;1.15;;;4.80;99.90;;;;;;5060613;28;20059;-68
2023/03/27 08:11:03;;;;;;;9.45;1.85;;;4.90;99.90;;;;;;5064221;28;20048;-68
2023/03/27 08:13:28;;;;;;;;;;;4.90;99.90;;;;;;5059517;28;20041;-68
2023/03/27 08:16:06;;;;;;;9.13;1.38;;;4.90;99.90;;;;;;5064032;28;20314;-69
2023/03/27 08:18:32;;;;;;;;;;;5.00;99.90;;;;;;5050896;28;20040;-70
2023/03/27 08:21:00;;;;;;;8.30;1.45;;;5.10;99.90;;;;;;5042458;28;19928;-70
2023/03/27 08:23:26;;;;;;;9.57;1.65;;;5.20;99.90;;;;;;5055278;28;20041;-69
2023/03/27 08:25:52;;;;;;;7.13;1.30;;;5.20;99.90;;;;;;5059905;28;20535;-67
2023/03/27 08:28:18;;;;;;;9.80;1.55;;;5.20;99.90;;;;;;5060120;28;20040;-68
2023/03/27 08:30:44;;;;;;;7.15;1.50;;;5.40;99.90;;;;;;5057036;28;20037;-68
2023/03/27 08:33:10;;;;;;;10.93;1.65;;;5.40;99.90;;;;;;5053752;28;20084;-67
2023/03/27 08:35:36;;;;;;;9.68;1.83;;;5.50;99.90;;;;;;5055984;28;20064;-67
2023/03/27 08:38:01;;;;;;;10.18;1.52;;;5.60;99.90;;;;;;5050449;28;20040;-68
2023/03/27 08:40:30;;;;;;;11.27;1.80;;;5.70;99.90;;;;;;5044724;28;20056;-67
2023/03/27 08:43:02;;;;;;;12.25;1.88;;;5.80;99.90;;;;;;5057973;28;20128;-68
2023/03/27 08:45:39;;;;;;;9.63;2.00;;;5.90;99.90;;;;;;5061196;28;20123;-69
2023/03/27 08:48:10;;;;;;;;;;;5.90;99.90;;;;;;5064456;28;20056;-69
2023/03/27 08:50:42;;;;;;;3.72;0.80;;;5.60;99.90;;;;;;5057713;28;19943;-68
2023/03/27 08:53:34;;;;;;;4.53;1.00;;;5.00;99.90;;;;;;5060846;28;20072;-68
2023/03/27 08:56:02;;;;;;;3.72;0.98;;;4.50;99.90;;;;;;5048627;28;20456;-66
2023/03/27 08:58:29;;;;;;;5.47;1.08;;;4.20;99.90;;;;;;5058534;28;20045;-69
2023/03/27 09:01:10;;;;;;;6.15;1.00;;;4.10;99.90;;;;;;5060273;28;20076;-70
2023/03/27 09:03:46;;;;;;;4.78;1.10;;;4.10;99.90;;;;;;5044310;28;20045;-68
2023/03/27 09:06:25;;;;;;;5.40;1.15;;;4.10;99.90;;;;;;5055233;28;20056;-69
2023/03/27 09:09:28;;;;;;;7.32;1.20;;;4.20;99.90;;;;;;5053898;28;20081;-72
2023/03/27 09:12:21;;;;;;;4.90;0.95;;;4.40;99.90;;;;;;5054265;28;20071;-70
2023/03/27 09:15:06;;;;;;;8.20;1.45;;;4.50;99.90;;;;;;5042974;28;20049;-69
2023/03/27 09:17:48;;;;;;;5.95;1.23;;;4.70;99.90;;;;;;5054367;28;20048;-70
2023/03/27 09:20:27;;;;;;;5.00;1.05;;;4.60;99.90;;;;;;5059353;28;20407;-68
2023/03/27 09:23:00;;;;;;;4.40;1.23;;;4.90;99.90;;;;;;5053778;28;20072;-67
2023/03/27 09:25:29;;;;;;;6.03;1.35;;;5.00;99.90;;;;;;5067011;28;20062;-68
2023/03/27 09:27:57;;;;;;;6.05;1.30;;;5.10;99.90;;;;;;5048440;28;20059;-67
2023/03/27 09:30:27;;;;;;;5.82;1.17;;;5.20;99.90;;;;;;5068068;28;20080;-67
2023/03/27 09:32:56;;;;;;;6.57;1.77;;;5.30;99.90;;;;;;5061706;28;20131;-67
2023/03/27 09:35:22;;;;;;;6.10;1.45;;;5.30;99.90;;;;;;5052514;28;20123;-68
2023/03/27 09:37:55;;;;;;;5.43;1.15;;;5.40;99.90;;;;;;5055444;28;20045;-68
2023/03/27 09:40:42;;;;;;;6.22;1.35;;;5.50;99.90;;;;;;5059428;28;20498;-67
2023/03/27 09:43:21;;;;;;;5.15;1.10;;;5.60;99.90;;;;;;5059862;28;20041;-67
2023/03/27 09:45:48;;;;;;;6.30;1.27;;;5.70;99.90;;;;;;5063873;28;20466;-69
2023/03/27 09:48:42;;;;;;;;;;;5.80;99.90;;;;;;5057322;28;20044;-66
2023/03/27 09:51:43;;;;;;;9.43;1.13;;;5.90;99.90;;;;;;5031231;28;19966;-69
2023/03/27 09:54:13;;;;;;;8.05;1.58;;;6.00;99.90;;;;;;5058623;28;20045;-69
2023/03/27 09:56:43;;;;;;;6.13;1.50;;;6.10;99.90;;;;;;5047214;28;20155;-66
2023/03/27 09:59:19;;;;;;;6.80;1.20;;;6.30;99.90;;;;;;5061688;28;20708;-69
2023/03/27 10:01:47;;;;;;;9.93;1.97;;;6.30;99.90;;;;;;5054644;28;20159;-69
2023/03/27 10:04:16;;;;;;;5.53;1.00;;;6.30;99.90;;;;;;5061746;28;20299;-68
2023/03/27 10:06:44;;;;;;;1.48;0.50;;;6.40;99.90;;;;;;5059776;28;20060;-69
2023/03/27 10:09:29;;;;;;;1.45;0.68;;;6.30;99.90;;;;;;5059976;28;20048;-68
2023/03/27 10:12:03;;;;;;;4.32;0.90;;;6.20;99.90;;;;;;5043696;28;20071;-68
2023/03/27 10:14:31;;;;;;;5.03;1.00;;;6.10;99.90;;;;;;5057555;28;20586;-67
2023/03/27 10:16:57;;;;;;;4.40;0.98;;;6.10;99.90;;;;;;5053916;28;20431;-68
2023/03/27 10:19:32;;;;;;;3.90;1.02;;;6.10;99.90;;;;;;5036093;28;20064;-68
2023/03/27 10:22:21;;;;;;;6.20;1.17;;;6.00;99.90;;;;;;5055976;28;20045;-69
2023/03/27 10:24:47;;;;;;;4.20;1.33;;;6.10;99.90;;;;;;5037673;28;20051;-70
2023/03/27 10:27:30;;;;;;;5.55;1.15;;;6.20;99.90;;;;;;5037841;28;20048;-70
2023/03/27 10:29:56;;;;;;;8.95;1.40;;;6.30;99.90;;;;;;5041023;28;20051;-69
2023/03/27 10:32:43;;;;;;;6.70;1.80;;;6.40;99.90;;;;;;5063153;28;20037;-68
2023/03/27 10:35:21;;;;;;;5.82;1.38;;;6.50;99.90;;;;;;5064691;28;20170;-68
2023/03/27 10:37:49;;;;;;;5.00;0.80;;;6.50;99.90;;;;;;5043849;28;20056;-67
2023/03/27 10:40:23;;;;;;;6.05;1.10;;;6.60;99.90;;;;;;5057036;28;20045;-67
2023/03/27 10:42:49;;;;;;;6.25;1.23;;;6.80;99.90;;;;;;5055935;28;20051;-67
2023/03/27 10:45:19;;;;;;;6.95;1.00;;;6.90;99.90;;;;;;5058060;28;20041;-67
2023/03/27 10:47:49;;;;;;;4.25;1.30;;;7.00;99.90;;;;;;5069308;28;20454;-68
2023/03/27 10:50:21;;;;;;;4.18;0.70;;;7.20;99.90;;;;;;5072591;28;20115;-68
2023/03/27 10:52:59;;;;;;;5.40;1.00;;;7.30;99.90;;;;;;5048246;28;20049;-68
2023/03/27 10:55:50;;;;;;;4.72;0.57;;;7.20;99.90;;;;;;5060373;28;20047;-66
2023/03/27 10:58:50;;;;;;;3.78;0.80;;;7.20;99.90;;;;;;5059812;28;20064;-68
2023/03/27 11:01:26;;;;;;;3.80;0.70;;;7.30;99.20;;;;;;5065851;28;20049;-69
2023/03/27 11:04:18;;;;;;;3.90;0.68;;;7.40;99.60;;;;;;5038380;28;20044;-67
2023/03/27 11:06:47;;;;;;;3.60;0.70;;;7.50;99.90;;;;;;5062845;28;20048;-68
2023/03/27 11:09:15;;;;;;;3.45;0.90;;;7.70;99.90;;;;;;5061439;28;20420;-68
2023/03/27 11:12:11;;;;;;;7.30;1.30;;;7.70;99.90;;;;;;5046582;28;20080;-69
2023/03/27 11:14:49;;;;;;;7.03;1.10;;;7.50;99.90;;;;;;5052331;28;20531;-69
2023/03/27 11:17:19;;;;;;;10.55;1.10;;;7.30;99.90;;;;;;5057691;28;20045;-69
2023/03/27 11:19:51;;;;;;;4.13;0.70;;;7.30;99.90;;;;;;5061124;28;20049;-68
2023/03/27 11:22:30;;;;;;;2.08;0.70;;;7.30;99.90;;;;;;5056839;28;20048;-68
2023/03/27 11:25:19;;;;;;;2.83;0.70;;;7.50;99.90;;;;;;5062390;28;20040;-68
2023/03/27 11:28:12;;;;;;;4.85;1.20;;;7.50;99.90;;;;;;5038692;28;20064;-68
2023/03/27 11:30:54;;;;;;;6.35;1.15;;;7.50;99.90;;;;;;5052504;28;20491;-68
2023/03/27 11:33:50;;;;;;;5.72;1.42;;;7.40;99.90;;;;;;5059506;28;20263;-69
2023/03/27 11:36:22;;;;;;;3.47;1.02;;;7.50;99.90;;;;;;5029460;28;20041;-71
2023/03/27 11:39:02;;;;;;;6.35;1.10;;;7.50;99.90;;;;;;5065612;28;20056;-73
2023/03/27 11:41:28;;;;;;;4.93;1.10;;;7.60;99.90;;;;;;5041202;28;20087;-71
2023/03/27 11:43:54;;;;;;;7.78;1.10;;;7.40;99.90;;;;;;5047050;28;20178;-69
2023/03/27 11:46:29;;;;;;;4.03;0.80;;;7.30;99.90;;;;;;5057905;28;20041;-68
2023/03/27 11:49:07;;;;;;;4.93;0.85;;;7.30;99.90;;;;;;5037819;28;20508;-69
2023/03/27 11:52:00;;;;;;;3.65;1.00;;;7.30;99.90;;;;;;5037872;28;20114;-69
2023/03/27 11:54:39;;;;;;;4.20;0.85;;;7.40;98.60;;;;;;5062368;28;20177;-71
2023/03/27 11:57:13;;;;;;;5.30;0.98;;;7.60;96.10;;;;;;5060390;28;20049;-68
2023/03/27 11:59:45;;;;;;;7.40;1.25;;;7.60;90.70;;;;;;5045223;28;20056;-69
2023/03/27 12:02:41;;;;;;;6.72;1.00;;;7.60;92.80;;;;;;5054963;28;20060;-69
2023/03/27 12:05:23;;;;;;;6.53;1.10;;;7.70;95.10;;;;;;5054813;28;20488;-69
2023/03/27 12:07:55;;;;;;;5.25;0.80;;;7.80;99.60;;;;;;5044291;28;20077;-70
2023/03/27 12:10:34;;;;;;;2.92;0.85;;;7.80;80.10;;;;;;5061126;28;20044;-70
2023/03/27 12:13:28;;;;;;;5.18;1.05;;;7.80;82.50;;;;;;5060159;28;20123;-70
2023/03/27 12:16:07;;;;;;;8.20;1.15;;;7.90;75.50;;;;;;5061913;28;20052;-71
2023/03/27 12:18:47;;;;;;;4.28;1.30;;;7.80;86.70;;;;;;5057387;28;20048;-70
2023/03/27 12:21:23;;;;;;;4.90;0.90;;;7.90;78.50;;;;;;5051754;28;20048;-70
2023/03/27 12:24:03;;;;;;;5.50;1.10;;;7.90;72.00;;;;;;5050100;28;20068;-70
2023/03/27 12:26:41;;;;;;;7.32;1.15;;;7.90;95.60;;;;;;5039759;28;20052;-70
2023/03/27 12:29:22;;;;;;;6.22;1.30;;;7.60;99.90;;;;;;5051482;28;20393;-70
2023/03/27 12:32:22;;;;;;;5.32;1.15;;;7.50;99.90;;;;;;5032976;28;20136;-70
2023/03/27 12:34:54;;;;;;;6.30;1.40;;;7.60;99.90;;;;;;5051398;28;20044;-69
2023/03/27 12:37:29;;;;;;;6.78;1.00;;;7.70;99.90;;;;;;5051575;28;20048;-70
2023/03/27 12:39:59;;;;;;;6.60;1.25;;;7.70;99.90;;;;;;5036609;28;20484;-70
2023/03/27 12:42:53;;;;;;;4.25;0.70;;;7.70;99.90;;;;;;5060670;28;20101;-70
2023/03/27 12:45:21;;;;;;;6.13;1.27;;;7.40;99.90;;;;;;5032967;28;20049;-69
2023/03/27 12:48:08;;;;;;;8.18;1.10;;;7.10;99.90;;;;;;5051567;28;20043;-70
2023/03/27 12:50:50;;;;;;;7.68;1.13;;;7.00;99.90;;;;;;5051288;28;20448;-70
2023/03/27 12:53:25;;;;;;;7.32;1.30;;;6.90;99.90;;;;;;5050393;28;20044;-70
2023/03/27 12:56:11;;;;;;;6.10;1.25;;;6.80;99.90;;;;;;5061195;28;20067;-70
2023/03/27 12:58:37;;;;;;;7.50;1.45;;;6.70;99.90;;;;;;5049687;28;20159;-69
2023/03/27 13:01:08;;;;;;;6.53;1.20;;;6.50;99.90;;;;;;5036940;28;20509;-70
2023/03/27 13:04:05;;;;;;;9.35;1.40;;;6.50;99.90;;;;;;5030105;28;20053;-70
2023/03/27 13:06:39;;;;;;;6.25;1.55;;;6.70;99.90;;;;;;5035400;28;20048;-69
2023/03/27 13:09:26;;;;;;;5.72;1.40;;;6.90;99.90;;;;;;5030686;28;20528;-69
2023/03/27 13:12:16;;;;;;;5.68;0.90;;;7.10;99.90;;;;;;5031159;28;20056;-70
2023/03/27 13:14:53;;;;;;;8.68;1.17;;;7.30;99.90;;;;;;5029350;28;20113;-70
2023/03/27 13:17:41;;;;;;;7.40;1.40;;;7.50;99.90;;;;;;5037764;28;20055;-70
2023/03/27 13:20:31;;;;;;;7.25;1.45;;;7.70;99.90;;;;;;5033174;28;20064;-70
2023/03/27 13:23:01;;;;;;;4.28;1.10;;;7.90;99.90;;;;;;5048816;28;20052;-69
2023/03/27 13:25:31;;;;;;;6.38;1.40;;;7.90;99.90;;;;;;5037924;28;20041;-70